createdAt,value
2022-12-28T00:00:41.316Z,1.15
2022-12-28T00:04:43.060Z,1.02
2022-12-28T00:08:45.150Z,0.90
2022-12-28T00:12:46.773Z,0.90
2022-12-28T00:16:48.420Z,1.30
2022-12-28T00:20:59.987Z,0.80
2022-12-28T00:25:01.555Z,1.10
2022-12-28T00:29:05.563Z,1.38
2022-12-28T00:33:07.614Z,1.35
2022-12-28T00:37:12.975Z,1.10
2022-12-28T00:41:15.023Z,1.13
2022-12-28T00:45:16.761Z,0.82
2022-12-28T00:49:18.607Z,1.10
2022-12-28T00:53:20.710Z,0.90
2022-12-28T00:57:22.671Z,0.85
2022-12-28T01:01:25.742Z,0.80
2022-12-28T01:05:27.473Z,1.00
2022-12-28T01:09:29.086Z,0.95
2022-12-28T01:13:30.664Z,1.20
2022-12-28T01:17:32.812Z,1.10
2022-12-28T01:21:35.797Z,1.00
2022-12-28T01:25:37.403Z,1.30
2022-12-28T01:29:39.197Z,0.98
2022-12-28T01:33:41.608Z,1.10
2022-12-28T01:37:43.205Z,0.85
2022-12-28T01:41:45.007Z,1.15
2022-12-28T01:45:52.389Z,1.30
2022-12-28T01:50:03.455Z,1.10
2022-12-28T01:54:05.364Z,0.80
2022-12-28T01:58:21.657Z,1.08
2022-12-28T02:02:23.843Z,1.20
2022-12-28T02:06:25.889Z,0.90
2022-12-28T02:10:43.092Z,1.00
2022-12-28T02:14:47.466Z,1.10
2022-12-28T02:18:49.338Z,1.40
2022-12-28T02:23:03.921Z,0.95
2022-12-28T02:27:29.330Z,1.00
2022-12-28T02:32:02.684Z,1.00
2022-12-28T02:36:18.309Z,1.05
2022-12-28T02:40:45.039Z,0.90
2022-12-28T02:45:05.496Z,0.90
2022-12-28T02:49:42.999Z,0.88
2022-12-28T02:54:38.587Z,0.90
2022-12-28T02:59:12.391Z,1.13
2022-12-28T03:03:41.779Z,0.57
2022-12-28T03:08:28.508Z,0.80
2022-12-28T03:12:35.613Z,1.20
2022-12-28T03:17:00.537Z,0.73
2022-12-28T03:21:30.040Z,0.88
2022-12-28T03:25:56.277Z,0.60
2022-12-28T03:30:31.323Z,1.23
2022-12-28T03:34:33.797Z,0.90
2022-12-28T03:38:52.399Z,1.05
2022-12-28T03:43:16.927Z,1.00
2022-12-28T03:47:20.814Z,0.90
2022-12-28T03:51:25.307Z,1.10
2022-12-28T03:55:27.542Z,1.08
2022-12-28T03:59:29.128Z,1.10
2022-12-28T04:03:31.097Z,1.05
2022-12-28T04:07:33.162Z,0.90
2022-12-28T04:11:34.850Z,0.70
2022-12-28T04:15:36.475Z,1.08
2022-12-28T04:19:38.133Z,0.70
2022-12-28T04:23:40.275Z,0.93
2022-12-28T04:27:41.915Z,0.80
2022-12-28T04:31:43.564Z,0.85
2022-12-28T04:35:45.324Z,1.10
2022-12-28T04:39:55.374Z,0.90
2022-12-28T04:43:58.945Z,0.95
2022-12-28T04:48:00.661Z,0.88
2022-12-28T04:52:02.327Z,0.80
2022-12-28T04:56:05.476Z,0.98
2022-12-28T05:00:07.817Z,0.80
2022-12-28T05:04:09.531Z,0.65
2022-12-28T05:08:11.141Z,0.73
2022-12-28T05:12:12.805Z,0.80
2022-12-28T05:16:17.349Z,0.75
2022-12-28T05:20:20.521Z,0.98
2022-12-28T05:24:22.133Z,0.88
2022-12-28T05:28:25.220Z,0.80
2022-12-28T05:32:26.828Z,0.93
2022-12-28T05:36:28.471Z,0.77
2022-12-28T05:40:30.235Z,1.00
2022-12-28T05:44:32.354Z,0.70
2022-12-28T05:48:35.382Z,0.57
2022-12-28T05:52:38.617Z,0.80
2022-12-28T05:56:40.526Z,0.60
2022-12-28T06:00:42.199Z,0.88
2022-12-28T06:04:43.909Z,1.10
2022-12-28T06:08:47.228Z,0.57
2022-12-28T06:12:48.780Z,0.60
2022-12-28T06:16:51.449Z,0.68
2022-12-28T06:20:57.001Z,0.90
2022-12-28T06:24:59.331Z,0.75
2022-12-28T06:29:03.869Z,0.60
2022-12-28T06:33:05.487Z,0.70
2022-12-28T06:37:07.087Z,0.60
2022-12-28T06:41:13.807Z,0.60
2022-12-28T06:45:16.075Z,0.80
2022-12-28T06:49:17.692Z,0.82
2022-12-28T06:53:19.828Z,0.70
2022-12-28T06:57:21.493Z,0.70
2022-12-28T07:01:26.166Z,0.70
2022-12-28T07:05:27.877Z,0.68
2022-12-28T07:09:29.516Z,0.60
2022-12-28T07:13:31.237Z,0.43
2022-12-28T07:17:32.892Z,0.90
2022-12-28T07:21:37.324Z,0.70
2022-12-28T07:25:38.914Z,0.70
2022-12-28T07:29:42.016Z,0.90
2022-12-28T07:33:44.814Z,0.65
2022-12-28T07:37:46.419Z,0.70
2022-12-28T07:41:48.515Z,0.55
2022-12-28T07:45:59.943Z,0.80
2022-12-28T07:50:01.878Z,0.70
2022-12-28T07:54:03.995Z,0.50
2022-12-28T07:58:05.879Z,1.00
2022-12-28T08:02:09.315Z,0.60
2022-12-28T08:06:23.082Z,0.63
2022-12-28T08:10:24.742Z,0.47
2022-12-28T08:14:26.552Z,0.73
2022-12-28T08:18:28.578Z,0.60
2022-12-28T08:22:30.227Z,0.60
2022-12-28T08:26:37.311Z,0.75
2022-12-28T08:30:38.903Z,0.50
2022-12-28T08:34:40.562Z,0.60
2022-12-28T08:38:43.911Z,0.55
2022-12-28T08:42:45.507Z,0.77
2022-12-28T08:46:47.345Z,0.55
2022-12-28T08:50:49.164Z,0.68
2022-12-28T08:54:51.321Z,0.68
2022-12-28T08:58:53.509Z,0.60
2022-12-28T09:02:58.424Z,0.57
2022-12-28T09:07:00.174Z,0.60
2022-12-28T09:11:03.320Z,0.63
2022-12-28T09:15:05.463Z,0.60
2022-12-28T09:19:09.292Z,0.60
2022-12-28T09:23:10.890Z,0.60
2022-12-28T09:27:12.555Z,0.63
2022-12-28T09:31:15.409Z,0.40
2022-12-28T09:35:17.048Z,0.50
2022-12-28T09:39:21.916Z,0.60
2022-12-28T09:43:24.479Z,0.90
2022-12-28T09:47:32.990Z,0.50
2022-12-28T09:51:48.865Z,0.50
2022-12-28T09:56:04.987Z,0.65
2022-12-28T10:00:18.888Z,0.75
2022-12-28T10:04:20.618Z,0.55
2022-12-28T10:08:24.698Z,0.50
2022-12-28T10:12:26.292Z,0.30
2022-12-28T10:16:32.911Z,0.50
2022-12-28T10:20:35.062Z,0.90
2022-12-28T10:24:38.815Z,0.93
2022-12-28T10:28:50.957Z,0.35
2022-12-28T10:33:02.732Z,0.40
2022-12-28T10:37:16.725Z,0.45
2022-12-28T10:41:20.072Z,0.60
2022-12-28T10:45:45.266Z,0.43
2022-12-28T10:50:18.534Z,0.43
2022-12-28T10:54:28.110Z,0.70
2022-12-28T10:58:33.419Z,0.60
2022-12-28T11:02:35.956Z,0.60
2022-12-28T11:06:51.661Z,0.50
2022-12-28T11:10:59.037Z,0.73
2022-12-28T11:15:00.755Z,0.50
2022-12-28T11:19:03.201Z,0.65
2022-12-28T11:23:08.973Z,0.50
2022-12-28T11:27:16.248Z,0.63
2022-12-28T11:31:26.483Z,0.50
2022-12-28T11:35:34.964Z,0.50
2022-12-28T11:39:46.460Z,0.57
2022-12-28T11:43:50.795Z,0.50
2022-12-28T11:47:52.424Z,0.60
2022-12-28T11:52:23.378Z,0.60
2022-12-28T11:56:45.007Z,0.45
2022-12-28T12:00:50.255Z,0.50
2022-12-28T12:04:51.894Z,0.57
2022-12-28T12:08:53.710Z,0.65
2022-12-28T12:12:56.539Z,0.50
2022-12-28T12:17:25.610Z,0.50
2022-12-28T12:21:39.599Z,0.40
2022-12-28T12:25:44.863Z,0.60
2022-12-28T12:29:55.294Z,0.60
2022-12-28T12:34:05.485Z,0.30
2022-12-28T12:38:45.935Z,0.50
2022-12-28T12:43:13.098Z,0.40
2022-12-28T12:47:43.036Z,0.50
2022-12-28T12:51:55.279Z,0.43
2022-12-28T12:56:08.821Z,0.30
2022-12-28T13:00:22.635Z,0.40
2022-12-28T13:04:27.415Z,0.60
2022-12-28T13:08:36.599Z,0.40
2022-12-28T13:12:38.295Z,0.40
2022-12-28T13:16:40.157Z,0.55
2022-12-28T13:20:41.848Z,0.55
2022-12-28T13:24:45.854Z,0.60
2022-12-28T13:28:56.947Z,0.40
2022-12-28T13:33:00.675Z,0.80
2022-12-28T13:37:16.444Z,0.40
2022-12-28T13:41:26.494Z,0.60
2022-12-28T13:45:28.339Z,0.40
2022-12-28T13:49:36.672Z,0.30
2022-12-28T13:53:38.433Z,0.35
2022-12-28T13:57:49.050Z,0.40
2022-12-28T14:01:54.070Z,0.40
2022-12-28T14:06:02.107Z,0.45
2022-12-28T14:10:04.755Z,0.60
2022-12-28T14:14:07.059Z,1.30
2022-12-28T14:18:09.742Z,0.30
2022-12-28T14:22:34.017Z,0.40
2022-12-28T14:26:38.982Z,0.38
2022-12-28T14:30:42.801Z,0.45
2022-12-28T14:34:44.453Z,0.40
2022-12-28T14:38:49.285Z,0.50
2022-12-28T14:42:51.870Z,0.40
2022-12-28T14:46:54.457Z,0.50
2022-12-28T14:50:57.570Z,0.40
2022-12-28T14:54:59.239Z,0.32
2022-12-28T14:59:01.625Z,0.30
2022-12-28T15:03:17.787Z,0.20
2022-12-28T15:07:19.651Z,0.30
2022-12-28T15:11:23.733Z,0.40
2022-12-28T15:15:25.419Z,0.32
2022-12-28T15:19:27.121Z,0.40
2022-12-28T15:23:28.764Z,0.30
2022-12-28T15:27:30.453Z,0.43
2022-12-28T15:31:32.099Z,0.40
2022-12-28T15:35:34.042Z,0.30
2022-12-28T15:39:35.985Z,0.50
2022-12-28T15:43:37.621Z,0.40
2022-12-28T15:47:39.263Z,0.30
2022-12-28T15:51:41.585Z,0.40
2022-12-28T15:55:44.045Z,0.15
2022-12-28T15:59:46.290Z,0.47
2022-12-28T16:03:54.869Z,0.40
2022-12-28T16:07:56.422Z,0.30
2022-12-28T16:11:58.034Z,0.38
2022-12-28T16:16:08.998Z,0.30
2022-12-28T16:20:11.583Z,0.35
2022-12-28T16:24:13.243Z,0.30
2022-12-28T16:28:14.838Z,0.30
2022-12-28T16:32:16.712Z,0.30
2022-12-28T16:36:20.083Z,0.30
2022-12-28T16:40:21.749Z,0.28
2022-12-28T16:44:27.419Z,0.45
2022-12-28T16:48:29.153Z,0.20
2022-12-28T16:52:31.019Z,0.40
2022-12-28T16:56:32.941Z,0.35
2022-12-28T17:00:34.855Z,0.38
2022-12-28T17:04:36.530Z,0.63
2022-12-28T17:08:38.147Z,0.40
2022-12-28T17:12:40.218Z,0.75
2022-12-28T17:16:41.873Z,0.22
2022-12-28T17:20:45.121Z,0.20
2022-12-28T17:24:46.694Z,0.20
2022-12-28T17:28:48.708Z,0.40
2022-12-28T17:32:50.346Z,0.30
2022-12-28T17:36:51.941Z,0.35
2022-12-28T17:40:53.504Z,0.38
2022-12-28T17:44:55.143Z,0.30
2022-12-28T17:48:59.240Z,0.50
2022-12-28T17:53:00.944Z,0.40
2022-12-28T17:57:02.518Z,0.40
2022-12-28T18:01:04.494Z,0.40
2022-12-28T18:05:06.701Z,0.20
2022-12-28T18:09:08.451Z,0.30
2022-12-28T18:13:10.086Z,0.45
2022-12-28T18:17:11.722Z,0.20
2022-12-28T18:21:21.098Z,0.13
2022-12-28T18:25:23.505Z,0.47
2022-12-28T18:29:25.100Z,0.43
2022-12-28T18:33:26.786Z,0.28
2022-12-28T18:37:28.688Z,0.38
2022-12-28T18:41:33.891Z,0.30
2022-12-28T18:45:35.993Z,0.50
2022-12-28T18:49:40.210Z,0.30
2022-12-28T18:53:46.303Z,0.22
2022-12-28T18:57:48.141Z,0.30
2022-12-28T19:02:07.707Z,0.32
2022-12-28T19:06:10.723Z,0.30
2022-12-28T19:10:13.408Z,0.28
2022-12-28T19:14:16.532Z,0.47
2022-12-28T19:18:19.018Z,0.40
2022-12-28T19:22:21.001Z,0.40
2022-12-28T19:26:24.188Z,0.30
2022-12-28T19:30:25.781Z,0.38
2022-12-28T19:34:27.650Z,0.25
2022-12-28T19:38:29.297Z,0.40
2022-12-28T19:42:30.856Z,0.43
2022-12-28T19:46:32.774Z,0.50
2022-12-28T19:50:34.697Z,0.45
2022-12-28T19:54:37.554Z,0.40
2022-12-28T19:58:40.061Z,0.30
2022-12-28T20:02:41.822Z,0.70
2022-12-28T20:06:44.770Z,0.30
2022-12-28T20:10:54.044Z,0.50
2022-12-28T20:14:55.631Z,0.55
2022-12-28T20:18:57.781Z,0.50
2022-12-28T20:22:59.406Z,0.40
2022-12-28T20:27:01.945Z,0.52
2022-12-28T20:31:06.621Z,0.60
2022-12-28T20:35:08.361Z,0.47
2022-12-28T20:39:10.232Z,0.57
2022-12-28T20:43:23.998Z,0.68
2022-12-28T20:47:26.035Z,0.60
2022-12-28T20:51:28.031Z,0.40
2022-12-28T20:55:29.891Z,0.57
2022-12-28T20:59:31.617Z,0.77
2022-12-28T21:03:33.286Z,0.73
2022-12-28T21:07:35.178Z,0.80
2022-12-28T21:11:36.871Z,0.57
2022-12-28T21:15:42.483Z,0.70
2022-12-28T21:19:44.738Z,0.70
2022-12-28T21:23:46.324Z,0.80
2022-12-28T21:27:47.951Z,0.85
2022-12-28T21:31:51.560Z,0.50
2022-12-28T21:35:57.821Z,0.90
2022-12-28T21:39:59.705Z,0.60
2022-12-28T21:44:01.354Z,0.80
2022-12-28T21:48:03.211Z,0.68
2022-12-28T21:52:05.025Z,0.95
2022-12-28T21:56:12.753Z,1.10
2022-12-28T22:00:34.726Z,0.95
2022-12-28T22:05:01.804Z,0.63
2022-12-28T22:09:23.307Z,0.60
2022-12-28T22:13:24.881Z,0.93
2022-12-28T22:17:26.466Z,0.85
2022-12-28T22:21:28.349Z,0.70
2022-12-28T22:25:31.054Z,0.90
2022-12-28T22:29:32.611Z,0.88
2022-12-28T22:33:34.409Z,0.90
2022-12-28T22:37:36.729Z,0.90
2022-12-28T22:41:38.282Z,1.00
2022-12-28T22:45:39.929Z,0.68
2022-12-28T22:49:43.393Z,0.60
2022-12-28T22:53:45.258Z,0.90
2022-12-28T22:57:47.085Z,0.60
2022-12-28T23:01:48.744Z,0.80
2022-12-28T23:05:53.499Z,0.88
2022-12-28T23:09:55.116Z,0.60
2022-12-28T23:14:20.941Z,0.70
2022-12-28T23:18:41.203Z,0.70
2022-12-28T23:22:58.098Z,0.70
2022-12-28T23:27:18.768Z,0.75
2022-12-28T23:31:20.410Z,0.65
2022-12-28T23:35:23.808Z,0.80
2022-12-28T23:39:25.653Z,0.80
2022-12-28T23:43:30.006Z,0.70
2022-12-28T23:47:31.868Z,0.85
2022-12-28T23:51:33.619Z,0.90
2022-12-28T23:55:35.821Z,0.75
2022-12-28T23:59:37.774Z,0.60
